sensor_id;sensor_type;location;lat;lon;timestamp;pressure;altitude;pressure_sealevel;temperature;humidity
43281;BME280;62175;49.416;8.690;2022-12-18T00:02:14;101874.24;;;-0.99;43.39
43281;BME280;62175;49.416;8.690;2022-12-18T00:04:40;101879.62;;;-0.65;43.65
43281;BME280;62175;49.416;8.690;2022-12-18T00:07:08;101880.27;;;-1.44;43.95
43281;BME280;62175;49.416;8.690;2022-12-18T00:09:35;101875.22;;;-1.20;44.41
43281;BME280;62175;49.416;8.690;2022-12-18T00:12:03;101871.06;;;-0.77;43.87
43281;BME280;62175;49.416;8.690;2022-12-18T00:14:30;101881.29;;;-1.00;44.35
43281;BME280;62175;49.416;8.690;2022-12-18T00:16:57;101880.04;;;-1.29;44.45
43281;BME280;62175;49.416;8.690;2022-12-18T00:19:24;101878.73;;;-1.35;44.28
43281;BME280;62175;49.416;8.690;2022-12-18T00:21:51;101879.92;;;-1.49;44.28
43281;BME280;62175;49.416;8.690;2022-12-18T00:24:18;101883.58;;;-1.38;44.05
43281;BME280;62175;49.416;8.690;2022-12-18T00:26:46;101882.82;;;-0.81;43.84
43281;BME280;62175;49.416;8.690;2022-12-18T00:29:14;101884.74;;;-0.83;44.08
43281;BME280;62175;49.416;8.690;2022-12-18T00:31:42;101884.81;;;-1.06;44.35
43281;BME280;62175;49.416;8.690;2022-12-18T00:34:10;101881.85;;;-0.90;44.00
43281;BME280;62175;49.416;8.690;2022-12-18T00:36:37;101881.52;;;-0.99;43.74
43281;BME280;62175;49.416;8.690;2022-12-18T00:39:05;101883.66;;;-0.92;43.54
43281;BME280;62175;49.416;8.690;2022-12-18T00:41:32;101879.73;;;-0.70;44.01
43281;BME280;62175;49.416;8.690;2022-12-18T00:44:00;101876.62;;;-0.82;43.69
43281;BME280;62175;49.416;8.690;2022-12-18T00:46:27;101874.59;;;-0.98;43.68
43281;BME280;62175;49.416;8.690;2022-12-18T00:48:53;101873.86;;;-0.92;44.20
43281;BME280;62175;49.416;8.690;2022-12-18T00:51:21;101877.06;;;-0.90;44.01
43281;BME280;62175;49.416;8.690;2022-12-18T00:53:48;101880.95;;;-0.79;44.37
43281;BME280;62175;49.416;8.690;2022-12-18T00:56:15;101886.27;;;-0.98;44.29
43281;BME280;62175;49.416;8.690;2022-12-18T00:58:42;101897.87;;;-0.71;44.17
43281;BME280;62175;49.416;8.690;2022-12-18T01:01:10;101900.70;;;-1.13;44.35
43281;BME280;62175;49.416;8.690;2022-12-18T01:03:37;101902.36;;;-0.89;44.66
43281;BME280;62175;49.416;8.690;2022-12-18T01:06:06;101898.76;;;-0.73;43.78
43281;BME280;62175;49.416;8.690;2022-12-18T01:08:33;101895.47;;;-1.09;43.42
43281;BME280;62175;49.416;8.690;2022-12-18T01:11:06;101892.78;;;-0.87;44.12
43281;BME280;62175;49.416;8.690;2022-12-18T01:13:34;101888.37;;;-1.13;43.95
43281;BME280;62175;49.416;8.690;2022-12-18T01:16:02;101884.29;;;-1.18;44.03
43281;BME280;62175;49.416;8.690;2022-12-18T01:18:29;101884.01;;;-1.23;44.05
43281;BME280;62175;49.416;8.690;2022-12-18T01:20:56;101880.19;;;-1.23;43.74
43281;BME280;62175;49.416;8.690;2022-12-18T01:23:24;101866.26;;;-0.73;43.96
43281;BME280;62175;49.416;8.690;2022-12-18T01:25:52;101860.77;;;-1.12;44.53
43281;BME280;62175;49.416;8.690;2022-12-18T01:28:19;101865.22;;;-0.86;43.80
43281;BME280;62175;49.416;8.690;2022-12-18T01:30:46;101870.09;;;-0.79;43.85
43281;BME280;62175;49.416;8.690;2022-12-18T01:33:15;101875.71;;;-1.01;43.32
43281;BME280;62175;49.416;8.690;2022-12-18T01:35:43;101875.27;;;-0.57;43.16
43281;BME280;62175;49.416;8.690;2022-12-18T01:38:10;101874.63;;;-0.46;43.01
43281;BME280;62175;49.416;8.690;2022-12-18T01:40:37;101883.02;;;-0.83;43.42
43281;BME280;62175;49.416;8.690;2022-12-18T01:43:05;101889.58;;;-0.62;43.17
43281;BME280;62175;49.416;8.690;2022-12-18T01:45:32;101894.93;;;-0.91;43.61
43281;BME280;62175;49.416;8.690;2022-12-18T01:48:02;101898.26;;;-0.80;43.47
43281;BME280;62175;49.416;8.690;2022-12-18T01:50:34;101907.23;;;-1.24;43.54
43281;BME280;62175;49.416;8.690;2022-12-18T01:53:07;101904.51;;;-1.27;43.83
43281;BME280;62175;49.416;8.690;2022-12-18T01:55:39;101887.11;;;-0.92;43.37
43281;BME280;62175;49.416;8.690;2022-12-18T01:58:08;101882.23;;;-1.24;43.42
43281;BME280;62175;49.416;8.690;2022-12-18T02:00:35;101875.82;;;-1.17;43.35
43281;BME280;62175;49.416;8.690;2022-12-18T02:03:03;101874.21;;;-1.10;43.77
43281;BME280;62175;49.416;8.690;2022-12-18T02:05:40;101876.67;;;-1.16;43.76
43281;BME280;62175;49.416;8.690;2022-12-18T02:08:13;101868.30;;;-1.06;43.23
43281;BME280;62175;49.416;8.690;2022-12-18T02:10:48;101877.57;;;-1.24;43.08
43281;BME280;62175;49.416;8.690;2022-12-18T02:13:23;101890.96;;;-1.08;43.06
43281;BME280;62175;49.416;8.690;2022-12-18T02:16:00;101890.94;;;-0.80;43.12
43281;BME280;62175;49.416;8.690;2022-12-18T02:18:33;101891.13;;;-1.14;43.01
43281;BME280;62175;49.416;8.690;2022-12-18T02:21:11;101886.46;;;-1.01;42.72
43281;BME280;62175;49.416;8.690;2022-12-18T02:23:47;101897.12;;;-1.16;43.20
43281;BME280;62175;49.416;8.690;2022-12-18T02:26:21;101898.98;;;-1.09;43.97
43281;BME280;62175;49.416;8.690;2022-12-18T02:28:53;101892.62;;;-0.46;43.05
43281;BME280;62175;49.416;8.690;2022-12-18T02:31:23;101904.53;;;-1.17;42.86
43281;BME280;62175;49.416;8.690;2022-12-18T02:33:54;101908.61;;;-1.52;43.15
43281;BME280;62175;49.416;8.690;2022-12-18T02:36:24;101906.00;;;-1.23;43.43
43281;BME280;62175;49.416;8.690;2022-12-18T02:38:53;101898.28;;;-0.96;43.30
43281;BME280;62175;49.416;8.690;2022-12-18T02:41:21;101888.95;;;-0.98;42.98
43281;BME280;62175;49.416;8.690;2022-12-18T02:43:55;101888.74;;;-1.25;43.02
43281;BME280;62175;49.416;8.690;2022-12-18T02:46:29;101884.10;;;-0.90;43.66
43281;BME280;62175;49.416;8.690;2022-12-18T02:49:04;101884.53;;;-1.00;43.52
43281;BME280;62175;49.416;8.690;2022-12-18T02:51:39;101881.62;;;-1.25;43.82
43281;BME280;62175;49.416;8.690;2022-12-18T02:54:13;101877.93;;;-0.92;43.39
43281;BME280;62175;49.416;8.690;2022-12-18T02:56:50;101869.11;;;-1.12;43.57
43281;BME280;62175;49.416;8.690;2022-12-18T02:59:21;101865.76;;;-1.21;42.94
43281;BME280;62175;49.416;8.690;2022-12-18T03:01:54;101858.87;;;-0.92;43.28
43281;BME280;62175;49.416;8.690;2022-12-18T03:04:26;101854.75;;;-0.89;42.94
43281;BME280;62175;49.416;8.690;2022-12-18T03:06:57;101844.97;;;-1.38;42.84
43281;BME280;62175;49.416;8.690;2022-12-18T03:09:31;101850.31;;;-1.41;42.85
43281;BME280;62175;49.416;8.690;2022-12-18T03:12:07;101862.54;;;-1.36;43.24
43281;BME280;62175;49.416;8.690;2022-12-18T03:14:38;101877.36;;;-1.85;43.43
43281;BME280;62175;49.416;8.690;2022-12-18T03:17:11;101892.10;;;-1.51;43.45
43281;BME280;62175;49.416;8.690;2022-12-18T03:19:41;101892.57;;;-1.47;43.63
43281;BME280;62175;49.416;8.690;2022-12-18T03:22:11;101900.14;;;-1.27;43.93
43281;BME280;62175;49.416;8.690;2022-12-18T03:24:40;101908.28;;;-1.32;43.61
43281;BME280;62175;49.416;8.690;2022-12-18T03:27:10;101911.53;;;-1.61;43.93
43281;BME280;62175;49.416;8.690;2022-12-18T03:29:44;101902.92;;;-1.62;44.24
43281;BME280;62175;49.416;8.690;2022-12-18T03:32:17;101892.06;;;-1.59;43.58
43281;BME280;62175;49.416;8.690;2022-12-18T03:34:51;101885.67;;;-1.38;43.77
43281;BME280;62175;49.416;8.690;2022-12-18T03:37:21;101865.88;;;-1.27;43.42
43281;BME280;62175;49.416;8.690;2022-12-18T03:39:48;101842.31;;;-1.07;43.07
43281;BME280;62175;49.416;8.690;2022-12-18T03:42:21;101842.13;;;-1.26;42.78
43281;BME280;62175;49.416;8.690;2022-12-18T03:44:57;101865.49;;;-0.99;42.33
43281;BME280;62175;49.416;8.690;2022-12-18T03:47:28;101877.42;;;-0.86;43.37
43281;BME280;62175;49.416;8.690;2022-12-18T03:50:06;101879.31;;;-1.27;43.69
43281;BME280;62175;49.416;8.690;2022-12-18T03:52:40;101868.75;;;-1.38;43.01
43281;BME280;62175;49.416;8.690;2022-12-18T03:55:09;101871.26;;;-1.25;42.27
43281;BME280;62175;49.416;8.690;2022-12-18T03:57:37;101876.54;;;-1.50;42.68
43281;BME280;62175;49.416;8.690;2022-12-18T04:00:08;101881.21;;;-1.30;42.04
43281;BME280;62175;49.416;8.690;2022-12-18T04:02:37;101884.94;;;-1.80;42.92
43281;BME280;62175;49.416;8.690;2022-12-18T04:05:07;101882.21;;;-1.32;42.49
43281;BME280;62175;49.416;8.690;2022-12-18T04:07:36;101888.47;;;-1.27;42.35
43281;BME280;62175;49.416;8.690;2022-12-18T04:10:07;101889.54;;;-2.02;43.41
43281;BME280;62175;49.416;8.690;2022-12-18T04:12:37;101883.08;;;-1.43;43.10
43281;BME280;62175;49.416;8.690;2022-12-18T04:15:05;101886.41;;;-1.26;42.95
43281;BME280;62175;49.416;8.690;2022-12-18T04:17:32;101895.62;;;-1.38;42.56
43281;BME280;62175;49.416;8.690;2022-12-18T04:19:59;101890.92;;;-2.03;43.44
43281;BME280;62175;49.416;8.690;2022-12-18T04:22:27;101893.73;;;-1.43;43.12
43281;BME280;62175;49.416;8.690;2022-12-18T04:24:54;101891.52;;;-1.98;43.47
43281;BME280;62175;49.416;8.690;2022-12-18T04:27:21;101889.28;;;-1.73;43.39
43281;BME280;62175;49.416;8.690;2022-12-18T04:29:48;101880.42;;;-1.66;43.31
43281;BME280;62175;49.416;8.690;2022-12-18T04:32:15;101872.08;;;-1.59;43.45
43281;BME280;62175;49.416;8.690;2022-12-18T04:34:43;101857.84;;;-2.13;43.82
43281;BME280;62175;49.416;8.690;2022-12-18T04:37:10;101851.81;;;-1.78;43.47
43281;BME280;62175;49.416;8.690;2022-12-18T04:39:37;101860.69;;;-1.94;43.34
43281;BME280;62175;49.416;8.690;2022-12-18T04:42:04;101853.59;;;-1.37;43.31
43281;BME280;62175;49.416;8.690;2022-12-18T04:44:31;101850.42;;;-1.39;43.00
43281;BME280;62175;49.416;8.690;2022-12-18T04:46:58;101858.49;;;-1.41;42.72
43281;BME280;62175;49.416;8.690;2022-12-18T04:49:26;101865.56;;;-1.70;42.72
43281;BME280;62175;49.416;8.690;2022-12-18T04:51:53;101862.38;;;-2.19;42.94
43281;BME280;62175;49.416;8.690;2022-12-18T04:54:20;101864.51;;;-1.58;42.56
43281;BME280;62175;49.416;8.690;2022-12-18T04:56:48;101869.00;;;-1.80;42.57
43281;BME280;62175;49.416;8.690;2022-12-18T04:59:15;101872.58;;;-2.25;42.99
43281;BME280;62175;49.416;8.690;2022-12-18T05:01:42;101869.91;;;-1.88;43.37
43281;BME280;62175;49.416;8.690;2022-12-18T05:04:09;101868.42;;;-1.53;43.10
43281;BME280;62175;49.416;8.690;2022-12-18T05:06:37;101873.47;;;-2.16;44.17
43281;BME280;62175;49.416;8.690;2022-12-18T05:09:03;101880.53;;;-2.25;43.57
43281;BME280;62175;49.416;8.690;2022-12-18T05:11:31;101886.85;;;-1.95;43.51
43281;BME280;62175;49.416;8.690;2022-12-18T05:13:58;101895.86;;;-2.20;43.67
43281;BME280;62175;49.416;8.690;2022-12-18T05:16:25;101910.18;;;-2.16;43.71
43281;BME280;62175;49.416;8.690;2022-12-18T05:18:52;101910.67;;;-2.05;43.76
43281;BME280;62175;49.416;8.690;2022-12-18T05:21:19;101907.44;;;-1.76;42.99
43281;BME280;62175;49.416;8.690;2022-12-18T05:23:47;101908.97;;;-1.86;43.30
43281;BME280;62175;49.416;8.690;2022-12-18T05:26:16;101908.58;;;-1.26;43.27
43281;BME280;62175;49.416;8.690;2022-12-18T05:28:44;101903.81;;;-1.66;43.00
43281;BME280;62175;49.416;8.690;2022-12-18T05:31:12;101898.29;;;-1.55;43.18
43281;BME280;62175;49.416;8.690;2022-12-18T05:33:39;101899.75;;;-1.71;43.95
43281;BME280;62175;49.416;8.690;2022-12-18T05:36:08;101896.86;;;-1.76;43.43
43281;BME280;62175;49.416;8.690;2022-12-18T05:38:37;101909.24;;;-1.02;43.03
43281;BME280;62175;49.416;8.690;2022-12-18T05:41:06;101909.23;;;-1.55;42.75
43281;BME280;62175;49.416;8.690;2022-12-18T05:43:34;101904.51;;;-2.18;43.20
43281;BME280;62175;49.416;8.690;2022-12-18T05:46:04;101892.92;;;-1.67;43.45
43281;BME280;62175;49.416;8.690;2022-12-18T05:48:32;101891.86;;;-2.33;43.19
43281;BME280;62175;49.416;8.690;2022-12-18T05:51:04;101878.07;;;-1.96;43.29
43281;BME280;62175;49.416;8.690;2022-12-18T05:53:33;101873.20;;;-1.79;43.50
43281;BME280;62175;49.416;8.690;2022-12-18T05:56:02;101868.23;;;-2.06;43.42
43281;BME280;62175;49.416;8.690;2022-12-18T05:58:31;101868.42;;;-1.84;43.41
43281;BME280;62175;49.416;8.690;2022-12-18T06:01:07;101855.41;;;-2.21;43.26
43281;BME280;62175;49.416;8.690;2022-12-18T06:03:34;101863.25;;;-1.95;43.63
43281;BME280;62175;49.416;8.690;2022-12-18T06:06:03;101863.96;;;-1.82;43.56
43281;BME280;62175;49.416;8.690;2022-12-18T06:08:30;101873.25;;;-1.75;43.08
43281;BME280;62175;49.416;8.690;2022-12-18T06:10:57;101884.91;;;-1.91;43.17
43281;BME280;62175;49.416;8.690;2022-12-18T06:13:25;101878.90;;;-1.87;43.30
43281;BME280;62175;49.416;8.690;2022-12-18T06:15:52;101882.79;;;-2.26;43.43
43281;BME280;62175;49.416;8.690;2022-12-18T06:18:19;101895.35;;;-1.63;43.21
43281;BME280;62175;49.416;8.690;2022-12-18T06:20:55;101889.40;;;-2.10;43.65
43281;BME280;62175;49.416;8.690;2022-12-18T06:23:21;101890.05;;;-1.84;44.33
43281;BME280;62175;49.416;8.690;2022-12-18T06:25:49;101898.04;;;-1.94;44.06
43281;BME280;62175;49.416;8.690;2022-12-18T06:28:16;101901.92;;;-1.61;44.05
43281;BME280;62175;49.416;8.690;2022-12-18T06:30:44;101909.32;;;-2.37;43.61
43281;BME280;62175;49.416;8.690;2022-12-18T06:33:10;101913.46;;;-1.80;43.49
43281;BME280;62175;49.416;8.690;2022-12-18T06:35:37;101914.76;;;-2.73;44.14
43281;BME280;62175;49.416;8.690;2022-12-18T06:38:05;101918.51;;;-2.20;44.27
43281;BME280;62175;49.416;8.690;2022-12-18T06:40:32;101927.22;;;-2.04;43.58
43281;BME280;62175;49.416;8.690;2022-12-18T06:43:00;101929.93;;;-2.36;44.18
43281;BME280;62175;49.416;8.690;2022-12-18T06:45:27;101925.96;;;-2.10;43.75
43281;BME280;62175;49.416;8.690;2022-12-18T06:47:54;101925.35;;;-2.25;43.72
43281;BME280;62175;49.416;8.690;2022-12-18T06:50:21;101926.75;;;-1.95;43.99
43281;BME280;62175;49.416;8.690;2022-12-18T06:52:48;101931.70;;;-2.14;44.13
43281;BME280;62175;49.416;8.690;2022-12-18T06:55:15;101929.01;;;-1.90;44.25
43281;BME280;62175;49.416;8.690;2022-12-18T06:57:42;101933.93;;;-1.99;44.42
43281;BME280;62175;49.416;8.690;2022-12-18T07:00:10;101943.94;;;-1.56;44.15
43281;BME280;62175;49.416;8.690;2022-12-18T07:02:37;101950.59;;;-2.14;43.48
43281;BME280;62175;49.416;8.690;2022-12-18T07:05:06;101959.27;;;-2.23;43.87
43281;BME280;62175;49.416;8.690;2022-12-18T07:07:33;101964.32;;;-2.08;43.96
43281;BME280;62175;49.416;8.690;2022-12-18T07:10:02;101958.26;;;-2.08;43.93
43281;BME280;62175;49.416;8.690;2022-12-18T07:12:29;101953.43;;;-2.16;43.94
43281;BME280;62175;49.416;8.690;2022-12-18T07:14:56;101952.66;;;-1.90;43.69
43281;BME280;62175;49.416;8.690;2022-12-18T07:17:24;101944.94;;;-1.82;43.39
43281;BME280;62175;49.416;8.690;2022-12-18T07:19:51;101953.11;;;-1.94;43.89
43281;BME280;62175;49.416;8.690;2022-12-18T07:22:18;101961.63;;;-1.72;44.00
43281;BME280;62175;49.416;8.690;2022-12-18T07:24:45;101957.39;;;-1.77;43.95
43281;BME280;62175;49.416;8.690;2022-12-18T07:27:12;101965.67;;;-1.46;44.06
43281;BME280;62175;49.416;8.690;2022-12-18T07:29:39;101964.78;;;-2.48;43.42
43281;BME280;62175;49.416;8.690;2022-12-18T07:32:06;101964.61;;;-1.94;43.40
43281;BME280;62175;49.416;8.690;2022-12-18T07:34:33;101978.47;;;-2.19;44.11
43281;BME280;62175;49.416;8.690;2022-12-18T07:37:01;101974.97;;;-2.22;43.19
43281;BME280;62175;49.416;8.690;2022-12-18T07:39:28;101975.07;;;-1.96;43.42
43281;BME280;62175;49.416;8.690;2022-12-18T07:41:55;101975.63;;;-1.79;43.74
43281;BME280;62175;49.416;8.690;2022-12-18T07:44:22;101973.53;;;-2.40;43.63
43281;BME280;62175;49.416;8.690;2022-12-18T07:46:50;101960.68;;;-2.28;43.79
43281;BME280;62175;49.416;8.690;2022-12-18T07:49:17;101958.71;;;-1.83;43.84
43281;BME280;62175;49.416;8.690;2022-12-18T07:51:44;101955.73;;;-1.84;43.32
43281;BME280;62175;49.416;8.690;2022-12-18T07:54:11;101954.60;;;-2.10;43.34
43281;BME280;62175;49.416;8.690;2022-12-18T07:56:39;101958.81;;;-2.40;43.52
43281;BME280;62175;49.416;8.690;2022-12-18T07:59:06;101953.48;;;-2.19;43.32
43281;BME280;62175;49.416;8.690;2022-12-18T08:01:33;101959.61;;;-1.96;43.04
43281;BME280;62175;49.416;8.690;2022-12-18T08:04:00;101953.67;;;-1.71;44.00
43281;BME280;62175;49.416;8.690;2022-12-18T08:06:28;101957.72;;;-1.44;43.46
43281;BME280;62175;49.416;8.690;2022-12-18T08:08:56;101963.60;;;-1.70;42.78
43281;BME280;62175;49.416;8.690;2022-12-18T08:11:26;101949.57;;;-1.89;43.05
43281;BME280;62175;49.416;8.690;2022-12-18T08:13:54;101943.75;;;-1.11;42.98
43281;BME280;62175;49.416;8.690;2022-12-18T08:16:22;101935.30;;;-1.36;42.57
43281;BME280;62175;49.416;8.690;2022-12-18T08:18:49;101942.40;;;-1.42;42.95
43281;BME280;62175;49.416;8.690;2022-12-18T08:21:20;101940.70;;;-1.11;43.45
43281;BME280;62175;49.416;8.690;2022-12-18T08:23:48;101937.73;;;-1.09;43.65
43281;BME280;62175;49.416;8.690;2022-12-18T08:26:16;101943.80;;;-0.96;43.26
43281;BME280;62175;49.416;8.690;2022-12-18T08:28:43;101935.48;;;-0.74;43.13
43281;BME280;62175;49.416;8.690;2022-12-18T08:31:11;101939.52;;;-0.85;42.98
43281;BME280;62175;49.416;8.690;2022-12-18T08:33:39;101948.25;;;-0.51;43.26
43281;BME280;62175;49.416;8.690;2022-12-18T08:36:08;101947.49;;;-0.39;43.21
43281;BME280;62175;49.416;8.690;2022-12-18T08:38:36;101949.27;;;-0.33;43.03
43281;BME280;62175;49.416;8.690;2022-12-18T08:41:06;101950.38;;;-0.06;43.27
43281;BME280;62175;49.416;8.690;2022-12-18T08:43:33;101941.22;;;-0.13;43.23
43281;BME280;62175;49.416;8.690;2022-12-18T08:46:00;101943.20;;;-0.23;43.50
43281;BME280;62175;49.416;8.690;2022-12-18T08:48:27;101925.58;;;-0.76;42.57
43281;BME280;62175;49.416;8.690;2022-12-18T08:50:55;101918.46;;;-0.32;43.38
43281;BME280;62175;49.416;8.690;2022-12-18T08:53:26;101910.80;;;-0.12;43.25
43281;BME280;62175;49.416;8.690;2022-12-18T08:55:53;101913.34;;;-0.21;43.14
43281;BME280;62175;49.416;8.690;2022-12-18T08:58:21;101913.00;;;-0.07;42.86
43281;BME280;62175;49.416;8.690;2022-12-18T09:00:48;101915.33;;;-0.00;42.91
43281;BME280;62175;49.416;8.690;2022-12-18T09:03:17;101906.86;;;-0.16;42.98
43281;BME280;62175;49.416;8.690;2022-12-18T09:05:46;101898.71;;;-0.16;42.93
43281;BME280;62175;49.416;8.690;2022-12-18T09:08:18;101887.12;;;0.13;42.31
43281;BME280;62175;49.416;8.690;2022-12-18T09:10:47;101884.63;;;-0.01;42.91
43281;BME280;62175;49.416;8.690;2022-12-18T09:13:15;101873.80;;;-0.26;42.73
43281;BME280;62175;49.416;8.690;2022-12-18T09:15:44;101852.53;;;0.04;43.60
43281;BME280;62175;49.416;8.690;2022-12-18T09:18:12;101859.36;;;0.06;42.49
43281;BME280;62175;49.416;8.690;2022-12-18T09:20:40;101858.08;;;-0.01;42.62
43281;BME280;62175;49.416;8.690;2022-12-18T09:23:08;101858.27;;;0.63;42.78
43281;BME280;62175;49.416;8.690;2022-12-18T09:25:36;101875.28;;;0.26;42.65
43281;BME280;62175;49.416;8.690;2022-12-18T09:28:06;101872.36;;;0.64;42.55
43281;BME280;62175;49.416;8.690;2022-12-18T09:30:34;101869.05;;;0.17;42.49
43281;BME280;62175;49.416;8.690;2022-12-18T09:33:03;101868.04;;;0.35;42.65
43281;BME280;62175;49.416;8.690;2022-12-18T09:35:30;101869.22;;;0.59;42.55
43281;BME280;62175;49.416;8.690;2022-12-18T09:37:58;101874.66;;;0.45;43.61
43281;BME280;62175;49.416;8.690;2022-12-18T09:40:28;101883.80;;;0.35;42.19
43281;BME280;62175;49.416;8.690;2022-12-18T09:43:02;101888.59;;;0.27;42.14
43281;BME280;62175;49.416;8.690;2022-12-18T09:45:38;101897.95;;;0.26;42.08
43281;BME280;62175;49.416;8.690;2022-12-18T09:48:10;101901.84;;;0.17;42.40
43281;BME280;62175;49.416;8.690;2022-12-18T09:50:44;101916.22;;;0.22;42.56
43281;BME280;62175;49.416;8.690;2022-12-18T09:53:18;101932.11;;;0.36;42.34
43281;BME280;62175;49.416;8.690;2022-12-18T09:55:48;101930.46;;;0.60;42.68
43281;BME280;62175;49.416;8.690;2022-12-18T09:58:19;101938.87;;;0.55;41.94
43281;BME280;62175;49.416;8.690;2022-12-18T10:00:48;101947.00;;;0.63;42.23
43281;BME280;62175;49.416;8.690;2022-12-18T10:03:18;101960.20;;;0.72;42.04
43281;BME280;62175;49.416;8.690;2022-12-18T10:05:54;101957.15;;;0.62;41.81
43281;BME280;62175;49.416;8.690;2022-12-18T10:08:34;101953.29;;;0.47;42.09
43281;BME280;62175;49.416;8.690;2022-12-18T10:11:25;101950.31;;;0.64;42.16
43281;BME280;62175;49.416;8.690;2022-12-18T10:13:59;101940.39;;;0.78;42.05
43281;BME280;62175;49.416;8.690;2022-12-18T10:16:38;101933.54;;;0.71;42.02
43281;BME280;62175;49.416;8.690;2022-12-18T10:19:24;101928.96;;;1.01;41.85
43281;BME280;62175;49.416;8.690;2022-12-18T10:22:02;101928.08;;;1.06;41.79
43281;BME280;62175;49.416;8.690;2022-12-18T10:24:39;101925.37;;;0.97;42.24
43281;BME280;62175;49.416;8.690;2022-12-18T10:27:13;101927.66;;;0.99;41.77
43281;BME280;62175;49.416;8.690;2022-12-18T10:29:42;101926.44;;;1.04;42.27
43281;BME280;62175;49.416;8.690;2022-12-18T10:32:15;101935.08;;;0.88;42.08
43281;BME280;62175;49.416;8.690;2022-12-18T10:34:46;101930.28;;;0.98;41.97
43281;BME280;62175;49.416;8.690;2022-12-18T10:37:17;101928.36;;;0.76;41.88
43281;BME280;62175;49.416;8.690;2022-12-18T10:39:44;101929.51;;;1.19;41.99
43281;BME280;62175;49.416;8.690;2022-12-18T10:42:17;101911.13;;;1.14;41.44
43281;BME280;62175;49.416;8.690;2022-12-18T10:44:44;101912.64;;;0.96;42.90
43281;BME280;62175;49.416;8.690;2022-12-18T10:47:14;101913.93;;;1.34;41.45
43281;BME280;62175;49.416;8.690;2022-12-18T10:49:48;101897.52;;;0.97;41.65
43281;BME280;62175;49.416;8.690;2022-12-18T10:52:18;101890.30;;;1.15;41.96
43281;BME280;62175;49.416;8.690;2022-12-18T10:54:49;101883.94;;;1.57;41.91
43281;BME280;62175;49.416;8.690;2022-12-18T10:57:31;101892.33;;;1.22;41.88
43281;BME280;62175;49.416;8.690;2022-12-18T11:00:18;101895.66;;;1.32;41.59
43281;BME280;62175;49.416;8.690;2022-12-18T11:02:47;101890.87;;;1.47;41.62
43281;BME280;62175;49.416;8.690;2022-12-18T11:05:31;101898.04;;;1.23;41.50
43281;BME280;62175;49.416;8.690;2022-12-18T11:08:00;101903.99;;;1.14;41.72
43281;BME280;62175;49.416;8.690;2022-12-18T11:10:31;101906.72;;;1.25;41.71
43281;BME280;62175;49.416;8.690;2022-12-18T11:14:59;101904.16;;;1.27;41.53
43281;BME280;62175;49.416;8.690;2022-12-18T11:17:29;101894.76;;;1.56;41.86
43281;BME280;62175;49.416;8.690;2022-12-18T11:19:58;101898.64;;;1.54;41.23
43281;BME280;62175;49.416;8.690;2022-12-18T11:22:29;101915.43;;;1.29;41.10
43281;BME280;62175;49.416;8.690;2022-12-18T11:24:59;101914.14;;;1.72;41.60
43281;BME280;62175;49.416;8.690;2022-12-18T11:27:26;101911.11;;;1.34;41.32
43281;BME280;62175;49.416;8.690;2022-12-18T11:30:28;101910.49;;;1.55;41.70
43281;BME280;62175;49.416;8.690;2022-12-18T11:33:00;101910.63;;;1.57;41.36
43281;BME280;62175;49.416;8.690;2022-12-18T11:36:46;101915.05;;;1.47;41.40
43281;BME280;62175;49.416;8.690;2022-12-18T11:39:19;101904.86;;;1.79;41.63
43281;BME280;62175;49.416;8.690;2022-12-18T11:41:52;101902.26;;;1.66;41.34
43281;BME280;62175;49.416;8.690;2022-12-18T11:44:27;101905.34;;;1.72;41.58
43281;BME280;62175;49.416;8.690;2022-12-18T23:02:53;101645.51;;;2.91;42.53
43281;BME280;62175;49.416;8.690;2022-12-18T23:05:20;101634.91;;;3.18;42.94
43281;BME280;62175;49.416;8.690;2022-12-18T23:07:47;101632.76;;;3.09;42.43
43281;BME280;62175;49.416;8.690;2022-12-18T23:10:15;101633.17;;;3.33;41.49
43281;BME280;62175;49.416;8.690;2022-12-18T23:12:42;101635.14;;;3.87;42.01
43281;BME280;62175;49.416;8.690;2022-12-18T23:15:10;101633.22;;;3.37;41.78
43281;BME280;62175;49.416;8.690;2022-12-18T23:17:37;101619.70;;;3.56;42.41
43281;BME280;62175;49.416;8.690;2022-12-18T23:20:05;101613.41;;;3.32;41.88
43281;BME280;62175;49.416;8.690;2022-12-18T23:22:33;101606.39;;;3.08;41.39
43281;BME280;62175;49.416;8.690;2022-12-18T23:25:00;101605.28;;;3.44;41.45
43281;BME280;62175;49.416;8.690;2022-12-18T23:27:28;101593.73;;;3.34;41.92
43281;BME280;62175;49.416;8.690;2022-12-18T23:29:55;101598.78;;;3.75;42.27
43281;BME280;62175;49.416;8.690;2022-12-18T23:32:23;101606.69;;;2.99;42.01
43281;BME280;62175;49.416;8.690;2022-12-18T23:34:49;101609.78;;;3.41;41.83
43281;BME280;62175;49.416;8.690;2022-12-18T23:37:17;101614.51;;;3.40;41.81
43281;BME280;62175;49.416;8.690;2022-12-18T23:39:44;101602.16;;;3.09;41.73
43281;BME280;62175;49.416;8.690;2022-12-18T23:42:11;101593.12;;;3.07;41.98
43281;BME280;62175;49.416;8.690;2022-12-18T23:44:38;101587.31;;;3.46;41.96
43281;BME280;62175;49.416;8.690;2022-12-18T23:47:05;101587.89;;;3.61;42.77
43281;BME280;62175;49.416;8.690;2022-12-18T23:49:33;101587.58;;;3.51;42.59
43281;BME280;62175;49.416;8.690;2022-12-18T23:52:00;101579.67;;;3.11;42.54
43281;BME280;62175;49.416;8.690;2022-12-18T23:54:27;101584.46;;;3.30;41.94
43281;BME280;62175;49.416;8.690;2022-12-18T23:56:54;101576.79;;;3.24;41.68
43281;BME280;62175;49.416;8.690;2022-12-18T23:59:21;101576.68;;;3.21;41.68
